Time;durP1;ratioP1;P1;durP2;ratioP2;P2;SDS_P1;SDS_P2;PMS_P1;PMS_P2;Temp;Humidity;BMP_temperature;BMP_pressure;BME280_temperature;BME280_humidity;BME280_pressure;Samples;Min_cycle;Max_cycle;Signal;HPM_P1;HPM_P2
2021/11/16 00:01:15;;;;;;;5.28;2.80;;;;;;;-0.31;61.57;101551.88;5167608;27;20084;-81
2021/11/16 00:03:43;;;;;;;5.38;2.72;;;;;;;-0.29;61.61;101560.59;5145882;27;20042;-80
2021/11/16 00:06:09;;;;;;;5.20;2.30;;;;;;;-0.34;61.35;101553.06;5148382;27;20084;-84
2021/11/16 00:08:35;;;;;;;10.65;3.83;;;;;;;-0.30;61.41;101558.91;5147294;27;20035;-79
2021/11/16 00:11:01;;;;;;;14.57;4.68;;;;;;;-0.30;61.71;101553.53;5143681;27;20042;-79
2021/11/16 00:13:27;;;;;;;8.18;3.45;;;;;;;-0.32;62.15;101559.09;5151232;27;20038;-78
2021/11/16 00:15:55;;;;;;;5.38;3.00;;;;;;;-0.38;62.07;101557.16;5142344;27;20039;-79
2021/11/16 00:18:27;;;;;;;3.22;2.08;;;;;;;-0.48;62.19;101527.03;5129118;27;20035;-82
2021/11/16 00:20:57;;;;;;;3.67;2.13;;;;;;;-0.38;62.06;101538.34;5127234;27;20059;-81
2021/11/16 00:23:25;;;;;;;5.28;2.58;;;;;;;-0.38;62.41;101522.22;5128133;27;20034;-81
2021/11/16 00:25:55;;;;;;;3.30;2.10;;;;;;;-0.39;62.23;101528.63;5126053;27;20077;-84
2021/11/16 00:28:23;;;;;;;7.00;2.20;;;;;;;-0.47;62.38;101508.03;5135489;27;20030;-84
2021/11/16 00:30:50;;;;;;;5.35;2.42;;;;;;;-0.37;62.53;101523.03;5156441;27;20087;-84
2021/11/16 00:33:18;;;;;;;4.32;2.22;;;;;;;-0.34;62.56;101520.81;5153111;27;20039;-81
2021/11/16 00:35:44;;;;;;;4.35;1.90;;;;;;;-0.35;62.38;101524.53;5152809;27;20566;-84
2021/11/16 00:38:12;;;;;;;3.65;2.00;;;;;;;-0.39;62.48;101525.94;5146781;27;20043;-80
2021/11/16 00:40:39;;;;;;;2.88;1.83;;;;;;;-0.43;62.61;101530.00;5116702;27;20133;-82
2021/11/16 00:43:08;;;;;;;3.55;1.92;;;;;;;-0.43;62.99;101516.56;5131329;27;20039;-84
2021/11/16 00:45:37;;;;;;;3.47;1.95;;;;;;;-0.38;62.66;101518.69;5135418;27;20035;-82
2021/11/16 00:48:04;;;;;;;2.13;1.50;;;;;;;-0.51;62.38;101514.81;5138924;27;20034;-83
2021/11/16 00:50:31;;;;;;;3.38;2.00;;;;;;;-0.59;62.87;101517.59;5156044;27;20049;-80
2021/11/16 00:52:57;;;;;;;3.70;1.57;;;;;;;-0.58;62.94;101513.88;5152470;27;20049;-79
2021/11/16 00:55:23;;;;;;;3.33;1.70;;;;;;;-0.56;62.74;101519.09;5134097;27;20043;-83
2021/11/16 00:57:49;;;;;;;3.53;1.98;;;;;;;-0.54;62.63;101520.53;5137030;27;20087;-85
2021/11/16 01:00:17;;;;;;;4.00;1.80;;;;;;;-0.54;62.67;101512.47;5155717;27;20049;-82
2021/11/16 01:02:45;;;;;;;;;;;;;;;-0.59;62.94;101508.72;5155704;27;20038;-82
2021/11/16 01:05:13;;;;;;;2.97;2.10;;;;;;;-0.61;62.93;101505.34;5155738;27;19915;-82
2021/11/16 01:07:40;;;;;;;;;;;;;;;-0.58;62.56;101499.63;5152091;27;20035;-82
2021/11/16 01:10:09;;;;;;;3.78;2.00;;;;;;;-0.56;62.73;101490.38;5155250;27;19926;-82
2021/11/16 01:12:36;;;;;;;3.10;1.65;;;;;;;-0.72;62.81;101477.13;5154799;27;20567;-81
2021/11/16 01:15:07;;;;;;;4.50;1.70;;;;;;;-0.66;62.58;101481.75;5155540;27;20045;-83
2021/11/16 01:17:34;;;;;;;2.80;1.63;;;;;;;-0.74;62.91;101466.53;5128840;27;20050;-82
2021/11/16 01:20:01;;;;;;;3.17;1.80;;;;;;;-0.78;63.01;101475.16;5153899;27;20051;-82
2021/11/16 01:22:29;;;;;;;2.65;1.63;;;;;;;-0.77;63.18;101469.59;5155480;27;20049;-82
2021/11/16 01:24:55;;;;;;;2.67;1.70;;;;;;;-0.79;63.07;101474.34;5155071;27;20034;-83
2021/11/16 01:27:21;;;;;;;2.03;1.48;;;;;;;-0.78;63.28;101472.47;5146982;27;20043;-79
2021/11/16 01:29:50;;;;;;;2.63;1.75;;;;;;;-0.77;63.35;101469.59;5125432;27;20104;-82
2021/11/16 01:32:38;;;;;;;2.67;1.63;;;;;;;-0.80;63.25;101466.44;5154368;27;20039;-80
2021/11/16 01:35:06;;;;;;;5.40;1.80;;;;;;;-0.77;63.38;101463.41;5154654;27;20027;-84
2021/11/16 01:37:33;;;;;;;3.25;1.80;;;;;;;-0.86;63.34;101446.56;5133367;27;20108;-85
2021/11/16 01:40:01;;;;;;;3.35;1.60;;;;;;;-0.78;63.19;101454.50;5118904;27;20074;-82
2021/11/16 01:42:27;;;;;;;2.67;1.55;;;;;;;-0.67;62.93;101439.78;5154918;27;20046;-77
2021/11/16 01:44:54;;;;;;;2.90;1.65;;;;;;;-0.65;62.82;101432.38;5154965;27;20043;-81
2021/11/16 01:47:21;;;;;;;2.37;1.53;;;;;;;-0.54;62.87;101428.38;5154597;27;20141;-83
2021/11/16 01:49:48;;;;;;;3.17;1.70;;;;;;;-0.56;62.40;101414.31;5144301;27;20046;-81
2021/11/16 01:52:14;;;;;;;2.92;1.75;;;;;;;-0.47;62.25;101429.28;5123308;27;20150;-85
2021/11/16 01:54:42;;;;;;;2.42;1.60;;;;;;;-0.45;62.25;101421.88;5133984;27;20204;-76
2021/11/16 01:57:09;;;;;;;3.95;1.50;;;;;;;-0.37;62.13;101420.91;5115348;27;20088;-76
2021/11/16 01:59:36;;;;;;;;;;;;;;;-0.32;62.01;101418.50;5117274;27;20067;-85
2021/11/16 02:02:04;;;;;;;2.75;1.52;;;;;;;-0.20;61.65;101425.03;5115492;27;20299;-84
2021/11/16 02:04:33;;;;;;;4.05;1.48;;;;;;;-0.12;61.51;101416.88;5113335;27;20058;-78
2021/11/16 02:07:00;;;;;;;4.37;2.00;;;;;;;-0.17;61.18;101423.81;5112935;28;20063;-85
2021/11/16 02:09:26;;;;;;;2.20;1.40;;;;;;;-0.21;61.36;101422.56;5143186;27;20038;-76
2021/11/16 02:14:24;;;;;;;3.47;1.60;;;;;;;-0.15;61.42;101411.88;5126924;27;20039;-84
2021/11/16 02:16:50;;;;;;;2.58;1.10;;;;;;;-0.20;61.07;101402.69;5149031;27;20031;-80
2021/11/16 02:19:19;;;;;;;2.58;1.27;;;;;;;-0.26;61.21;101404.31;5125922;27;20032;-77
2021/11/16 02:21:47;;;;;;;2.65;1.33;;;;;;;-0.36;61.55;101377.75;5112574;28;20062;-76
2021/11/16 02:24:14;;;;;;;1.77;1.20;;;;;;;-0.11;61.18;101415.00;5112681;28;20043;-81
2021/11/16 02:26:42;;;;;;;2.47;1.23;;;;;;;-0.06;60.93;101408.03;5115069;27;20571;-83
2021/11/16 02:29:09;;;;;;;2.30;1.52;;;;;;;-0.17;61.13;101391.56;5137549;27;20030;-83
2021/11/16 02:31:36;;;;;;;5.28;1.52;;;;;;;-0.11;61.21;101398.88;5154023;27;20042;-82
2021/11/16 02:34:04;;;;;;;1.27;1.00;;;;;;;-0.14;60.82;101399.25;5123469;27;20051;-83
2021/11/16 02:36:33;;;;;;;2.75;1.30;;;;;;;0.01;61.22;101401.91;5126914;27;20035;-78
2021/11/16 02:39:01;;;;;;;1.63;1.10;;;;;;;0.03;60.44;101405.22;5122512;27;20051;-84
2021/11/16 02:41:31;;;;;;;2.45;1.20;;;;;;;0.03;60.81;101399.84;5112301;28;20079;-77
2021/11/16 02:44:04;;;;;;;3.63;1.35;;;;;;;-0.01;61.31;101386.78;5112120;28;20047;-85
2021/11/16 02:46:33;;;;;;;3.10;1.20;;;;;;;0.01;61.00;101377.72;5114907;27;20119;-78
2021/11/16 02:49:00;;;;;;;2.67;1.17;;;;;;;0.00;60.77;101382.25;5112570;27;20443;-77
2021/11/16 02:51:26;;;;;;;;;;;;;;;-0.07;61.20;101378.66;5112893;28;20123;-82
2021/11/16 02:53:52;;;;;;;1.65;0.98;;;;;;;-0.12;61.26;101365.78;5112543;28;19970;-86
2021/11/16 02:56:20;;;;;;;2.92;1.20;;;;;;;-0.02;60.99;101362.78;5127296;27;20031;-85
2021/11/16 02:58:46;;;;;;;4.38;1.35;;;;;;;-0.01;60.86;101359.88;5084551;27;20043;-83
2021/11/16 03:01:19;;;;;;;5.23;1.10;;;;;;;0.11;60.80;101345.94;5132496;27;20065;-83
2021/11/16 03:03:45;;;;;;;1.95;1.30;;;;;;;0.08;60.81;101355.22;5118724;27;20316;-78
2021/11/16 03:06:13;;;;;;;2.05;1.10;;;;;;;-0.05;60.80;101350.56;5112398;28;20580;-85
2021/11/16 03:08:40;;;;;;;2.67;1.40;;;;;;;-0.13;61.64;101347.16;5126162;27;20531;-84
2021/11/16 03:11:09;;;;;;;7.28;1.38;;;;;;;-0.07;61.18;101346.38;5152949;27;20411;-80
2021/11/16 03:13:37;;;;;;;4.97;0.90;;;;;;;-0.20;61.41;101338.19;5153215;27;20045;-85
2021/11/16 03:16:05;;;;;;;2.13;1.33;;;;;;;-0.19;61.46;101326.44;5152954;27;20495;-79
2021/11/16 03:18:31;;;;;;;4.38;1.30;;;;;;;-0.09;61.63;101325.06;5126278;27;20035;-85
2021/11/16 03:20:57;;;;;;;2.75;1.08;;;;;;;-0.13;61.63;101317.56;5148810;27;20464;-79
2021/11/16 03:23:25;;;;;;;2.35;1.08;;;;;;;-0.26;61.59;101323.69;5153345;27;20038;-83
2021/11/16 03:25:59;;;;;;;3.08;1.27;;;;;;;-0.19;61.54;101318.38;5150111;27;20046;-78
2021/11/16 03:28:29;;;;;;;7.00;1.42;;;;;;;-0.21;61.71;101315.88;5146346;27;20039;-79
2021/11/16 03:30:59;;;;;;;4.45;1.35;;;;;;;-0.22;61.38;101297.25;5121210;27;20126;-82
2021/11/16 03:33:26;;;;;;;2.00;1.17;;;;;;;-0.31;61.81;101297.38;5132344;28;20075;-77
2021/11/16 03:35:54;;;;;;;2.55;1.58;;;;;;;-0.24;61.88;101300.94;5132256;28;20416;-79
2021/11/16 03:38:23;;;;;;;1.85;1.25;;;;;;;-0.19;61.59;101296.88;5137553;27;20520;-82
2021/11/16 03:40:53;;;;;;;1.42;1.13;;;;;;;-0.15;61.58;101292.75;5148294;27;20083;-83
2021/11/16 03:43:20;;;;;;;1.77;1.20;;;;;;;-0.19;61.50;101302.25;5115548;27;20066;-80
2021/11/16 03:45:48;;;;;;;9.68;1.38;;;;;;;-0.05;61.26;101304.00;5129233;27;20050;-78
2021/11/16 03:48:14;;;;;;;1.73;1.15;;;;;;;-0.08;61.36;101282.91;5121332;27;20063;-78
2021/11/16 03:50:41;;;;;;;1.55;1.02;;;;;;;-0.19;61.74;101283.44;5111756;28;20434;-78
2021/11/16 03:53:08;;;;;;;4.35;1.55;;;;;;;-0.12;61.59;101287.81;5110797;28;20051;-79
2021/11/16 03:55:41;;;;;;;2.30;1.05;;;;;;;-0.20;61.70;101284.44;5112709;28;20055;-84
2021/11/16 03:58:10;;;;;;;4.95;1.40;;;;;;;-0.13;61.80;101275.44;5116913;27;20540;-79
2021/11/16 04:00:39;;;;;;;2.83;1.60;;;;;;;-0.13;61.65;101263.81;5119291;27;20067;-79
2021/11/16 04:03:06;;;;;;;2.65;1.70;;;;;;;-0.11;61.72;101273.34;5138356;27;20142;-84
2021/11/16 04:05:33;;;;;;;2.67;1.55;;;;;;;-0.08;61.99;101266.75;5115660;27;20040;-77
2021/11/16 04:08:01;;;;;;;4.80;2.13;;;;;;;-0.15;61.98;101239.81;5139383;27;20588;-83
2021/11/16 04:10:27;;;;;;;2.42;1.35;;;;;;;-0.03;61.78;101254.41;5115028;28;20139;-83
2021/11/16 04:12:53;;;;;;;1.90;1.30;;;;;;;0.04;61.25;101238.31;5126553;27;20400;-80
2021/11/16 04:15:22;;;;;;;3.45;1.40;;;;;;;-0.02;61.28;101244.47;5135418;27;20039;-77
2021/11/16 04:17:50;;;;;;;2.78;1.35;;;;;;;-0.04;61.26;101230.38;5135335;27;20092;-81
2021/11/16 04:20:22;;;;;;;8.23;3.47;;;;;;;0.10;61.14;101225.94;5135109;27;20078;-77
2021/11/16 04:22:50;;;;;;;38.72;10.40;;;;;;;0.11;62.11;101232.97;5138769;27;20118;-82
2021/11/16 04:25:16;;;;;;;17.27;5.53;;;;;;;0.14;61.27;101216.47;5134137;27;20145;-82
2021/11/16 04:27:44;;;;;;;28.45;9.07;;;;;;;0.26;60.85;101228.31;5133426;27;20476;-79
2021/11/16 04:30:12;;;;;;;11.27;5.10;;;;;;;0.29;60.74;101217.16;5135535;27;20069;-82
2021/11/16 04:32:38;;;;;;;9.63;3.75;;;;;;;0.33;60.68;101220.28;5135970;27;20082;-79
2021/11/16 04:35:06;;;;;;;19.83;2.13;;;;;;;0.40;60.98;101218.47;5117188;27;20522;-73
2021/11/16 04:37:34;;;;;;;6.72;1.80;;;;;;;0.35;60.35;101218.22;5135782;27;20117;-78
2021/11/16 04:40:00;;;;;;;3.88;1.83;;;;;;;0.29;60.51;101202.88;5135660;27;20558;-92
2021/11/16 04:42:27;;;;;;;2.90;1.80;;;;;;;0.43;60.32;101218.91;5136011;27;20106;-91
2021/11/16 04:44:53;;;;;;;7.68;1.77;;;;;;;0.35;60.21;101207.47;5135776;27;20496;-91
2021/11/16 04:47:31;;;;;;;3.25;1.65;;;;;;;0.39;60.45;101198.78;5135804;27;20418;-81
2021/11/16 04:50:13;;;;;;;5.22;1.88;;;;;;;0.42;60.36;101219.91;5135771;27;20392;-77
2021/11/16 05:02:52;;;;;;;5.70;2.40;;;;;;;0.03;61.17;101192.78;5135683;27;20107;-90
2021/11/16 05:05:20;;;;;;;4.45;2.25;;;;;;;-0.11;61.83;101181.94;5117303;27;20054;-78
2021/11/16 05:07:56;;;;;;;18.75;4.22;;;;;;;-0.18;62.22;101170.31;5135473;27;20062;-81
2021/11/16 05:10:24;;;;;;;17.92;5.05;;;;;;;-0.26;62.59;101170.50;5117044;27;20043;-91
2021/11/16 05:12:51;;;;;;;4.07;2.22;;;;;;;-0.45;62.87;101181.91;5135158;27;20653;-83
2021/11/16 05:15:19;;;;;;;9.55;1.98;;;;;;;-0.46;63.32;101164.97;5135850;27;20043;-85
2021/11/16 05:17:48;;;;;;;6.13;2.22;;;;;;;-0.51;63.21;101162.03;5135941;27;20035;-89
2021/11/16 05:20:15;;;;;;;3.47;1.98;;;;;;;-0.42;63.14;101158.19;5136270;27;20134;-79
2021/11/16 05:22:43;;;;;;;4.80;1.85;;;;;;;-0.50;63.43;101153.78;5135523;27;20068;-90
2021/11/16 05:25:12;;;;;;;2.92;1.85;;;;;;;-0.61;63.83;101162.34;5136053;27;20042;-81
2021/11/16 05:27:39;;;;;;;5.97;2.60;;;;;;;-0.69;64.12;101157.13;5135834;27;20047;-85
2021/11/16 05:30:07;;;;;;;;;;;;;;;-0.69;64.03;101146.41;5136235;27;20336;-87
2021/11/16 05:32:34;;;;;;;6.97;2.85;;;;;;;-0.81;63.96;101143.38;5135530;27;19969;-92
2021/11/16 05:35:00;;;;;;;9.45;3.30;;;;;;;-0.73;64.14;101148.63;5135918;27;20047;-84
2021/11/16 05:37:27;;;;;;;9.90;3.85;;;;;;;-0.66;64.10;101159.44;5135566;27;20035;-85
2021/11/16 05:39:53;;;;;;;13.43;4.00;;;;;;;-0.64;64.09;101153.88;5135970;27;20357;-84
2021/11/16 05:42:21;;;;;;;5.95;2.92;;;;;;;-0.66;64.19;101151.38;5135717;27;20054;-90
2021/11/16 05:44:48;;;;;;;11.68;3.10;;;;;;;-0.63;63.99;101155.50;5135551;27;20130;-78
2021/11/16 05:47:14;;;;;;;6.78;2.80;;;;;;;-0.57;63.84;101150.19;5134520;27;20560;-84
2021/11/16 05:49:41;;;;;;;5.53;2.63;;;;;;;-0.59;64.04;101148.75;5135258;27;20035;-91
2021/11/16 05:52:07;;;;;;;10.05;2.60;;;;;;;-0.57;63.96;101157.44;5134923;27;20108;-83
2021/11/16 05:54:34;;;;;;;8.48;2.97;;;;;;;-0.49;63.67;101158.13;5134186;27;20031;-86
2021/11/16 05:57:06;;;;;;;7.90;2.70;;;;;;;-0.46;63.95;101162.28;5115731;27;20127;-87
2021/11/16 05:59:35;;;;;;;10.02;4.32;;;;;;;-0.42;63.56;101152.81;5133846;27;20277;-80
2021/11/16 06:02:10;;;;;;;28.00;8.80;;;;;;;-0.43;63.71;101132.34;5133363;27;20565;-88
2021/11/16 06:04:36;;;;;;;16.83;4.85;;;;;;;-0.48;63.69;101118.66;5115419;27;20039;-88
2021/11/16 06:07:05;;;;;;;5.22;2.70;;;;;;;-0.43;63.84;101112.69;5133800;27;20113;-87
2021/11/16 06:09:32;;;;;;;16.60;6.35;;;;;;;-0.41;63.82;101111.47;5133407;27;20096;-85
2021/11/16 06:12:00;;;;;;;13.80;5.20;;;;;;;-0.39;63.68;101119.34;5133324;27;20506;-87
2021/11/16 06:14:29;;;;;;;57.63;15.00;;;;;;;-0.39;63.76;101119.34;5133352;27;20031;-89
2021/11/16 06:16:55;;;;;;;25.17;8.07;;;;;;;-0.39;63.56;101122.84;5133564;27;20092;-87
2021/11/16 06:19:26;;;;;;;;;;;;;;;-0.44;63.47;101117.22;5133510;27;20039;-86
2021/11/16 06:21:52;;;;;;;17.02;5.03;;;;;;;-0.33;63.47;101113.16;5114503;27;19919;-87
2021/11/16 06:24:19;;;;;;;10.25;5.05;;;;;;;-0.31;63.29;101106.56;5133050;27;20059;-85
2021/11/16 06:26:45;;;;;;;7.15;3.47;;;;;;;-0.39;63.47;101098.69;5133333;27;20042;-78
2021/11/16 06:29:13;;;;;;;9.85;2.60;;;;;;;-0.29;63.15;101103.69;5133353;27;20039;-88
2021/11/16 06:31:41;;;;;;;3.70;2.38;;;;;;;-0.29;63.37;101106.38;5133480;27;20043;-84
2021/11/16 06:34:09;;;;;;;15.75;3.03;;;;;;;-0.26;63.31;101098.75;5133298;27;20065;-78
2021/11/16 06:36:40;;;;;;;10.57;3.25;;;;;;;-0.21;63.36;101078.50;5132915;27;20064;-80
2021/11/16 06:39:10;;;;;;;5.80;2.92;;;;;;;-0.27;63.37;101086.31;5132933;27;20138;-88
2021/11/16 06:41:37;;;;;;;5.22;2.50;;;;;;;-0.24;63.10;101067.13;5133772;27;20047;-88
2021/11/16 06:44:05;;;;;;;13.15;2.85;;;;;;;-0.14;62.99;101082.06;5133392;27;20433;-81
2021/11/16 06:46:32;;;;;;;4.10;2.50;;;;;;;-0.13;62.91;101070.25;5132704;27;20512;-78
2021/11/16 06:49:01;;;;;;;10.70;3.22;;;;;;;-0.07;62.80;101086.44;5133138;27;20046;-79
2021/11/16 06:51:28;;;;;;;9.55;3.80;;;;;;;0.08;63.12;101094.38;5114794;27;20189;-77
2021/11/16 06:53:55;;;;;;;9.75;3.22;;;;;;;0.14;62.42;101082.00;5133023;27;20039;-77
2021/11/16 06:56:28;;;;;;;6.23;3.10;;;;;;;0.07;62.33;101070.38;5133001;27;20047;-76
2021/11/16 06:58:54;;;;;;;7.18;3.60;;;;;;;0.13;62.48;101061.50;5136750;27;20276;-81
2021/11/16 07:01:21;;;;;;;11.77;4.90;;;;;;;0.04;62.35;101047.41;5134823;27;20043;-77
2021/11/16 07:03:50;;;;;;;11.93;5.00;;;;;;;0.21;62.37;101067.53;5133672;27;20047;-77
2021/11/16 07:06:17;;;;;;;8.75;3.90;;;;;;;0.07;62.40;101071.22;5133678;27;20138;-80
2021/11/16 07:08:45;;;;;;;15.60;4.85;;;;;;;0.12;62.59;101067.91;5133733;27;20057;-90
2021/11/16 07:11:17;;;;;;;13.38;5.28;;;;;;;0.17;62.39;101055.53;5138801;28;20031;-82
2021/11/16 07:14:06;;;;;;;11.52;4.55;;;;;;;0.23;62.04;101068.19;5137000;28;20043;-93
2021/11/16 07:16:38;;;;;;;7.82;3.33;;;;;;;0.29;61.69;101061.13;5133335;28;20439;-88
2021/11/16 07:19:08;;;;;;;10.13;3.90;;;;;;;0.34;61.50;101052.47;5133408;28;20040;-81
2021/11/16 07:21:45;;;;;;;9.07;4.10;;;;;;;0.38;61.78;101049.16;5133113;28;20531;-90
2021/11/16 07:24:14;;;;;;;6.75;3.33;;;;;;;0.32;61.51;101046.47;5115118;28;20043;-91
2021/11/16 07:26:42;;;;;;;12.82;3.80;;;;;;;0.34;61.51;101058.69;5133844;28;20126;-81
2021/11/16 07:29:13;;;;;;;13.07;3.70;;;;;;;0.43;61.73;101057.47;5133643;28;20043;-81
2021/11/16 07:31:43;;;;;;;5.70;2.70;;;;;;;0.46;61.20;101064.28;5133972;27;20039;-90
2021/11/16 07:34:20;;;;;;;11.23;3.78;;;;;;;0.32;61.45;101052.66;5137173;27;20053;-89
2021/11/16 07:36:53;;;;;;;;;;;;;;;0.46;61.27;101065.13;5138441;27;20062;-86
2021/11/16 07:39:23;;;;;;;10.25;2.75;;;;;;;0.35;61.21;101054.13;5137565;27;19919;-91
2021/11/16 07:41:51;;;;;;;11.10;3.42;;;;;;;0.44;61.08;101060.97;5136817;27;20039;-77
2021/11/16 07:44:19;;;;;;;6.65;3.20;;;;;;;0.29;61.31;101034.22;5136929;27;20154;-89
2021/11/16 07:46:53;;;;;;;8.05;4.55;;;;;;;0.58;61.09;101049.22;5118536;27;20039;-89
2021/11/16 07:49:21;;;;;;;17.67;3.60;;;;;;;0.61;60.20;101040.72;5118852;27;20039;-88
2021/11/16 07:51:48;;;;;;;7.30;3.17;;;;;;;0.45;60.41;101014.19;5137302;27;20039;-89
2021/11/16 07:54:20;;;;;;;9.07;3.70;;;;;;;0.57;60.61;101028.72;5136670;27;20039;-83
2021/11/16 07:56:46;;;;;;;20.73;9.43;;;;;;;0.60;60.78;101025.63;5136916;27;20043;-88
2021/11/16 07:59:14;;;;;;;12.45;4.20;;;;;;;0.56;60.97;101042.34;5136700;27;20168;-88
2021/11/16 08:04:39;;;;;;;8.75;3.92;;;;;;;0.74;60.33;101037.22;5137797;27;20108;-86
2021/11/16 08:07:15;;;;;;;7.97;3.22;;;;;;;0.65;60.33;101033.88;5137554;27;20064;-90
2021/11/16 08:09:46;;;;;;;10.43;3.97;;;;;;;0.76;60.21;101026.22;5137896;27;20070;-88
2021/11/16 08:12:40;;;;;;;16.52;4.20;;;;;;;0.80;59.72;101025.63;5140174;27;20461;-90
2021/11/16 08:15:12;;;;;;;11.70;3.20;;;;;;;0.81;59.89;101010.31;5139581;27;20051;-91
2021/11/16 08:17:40;;;;;;;12.73;3.25;;;;;;;0.85;59.67;100993.53;5137839;27;20041;-88
2021/11/16 08:20:11;;;;;;;11.25;3.50;;;;;;;0.94;59.83;101010.31;5136807;27;20066;-90
2021/11/16 08:22:38;;;;;;;11.43;3.88;;;;;;;0.88;59.49;101003.88;5136755;27;20043;-91
2021/11/16 08:25:06;;;;;;;17.95;3.88;;;;;;;0.97;59.53;100999.13;5136584;27;20051;-78
2021/11/16 08:27:36;;;;;;;7.68;3.92;;;;;;;0.99;59.02;100988.13;5136818;27;20473;-90
2021/11/16 08:30:16;;;;;;;8.05;3.22;;;;;;;0.81;59.03;100968.06;5137207;27;20046;-88
2021/11/16 08:32:45;;;;;;;7.15;3.30;;;;;;;0.89;58.86;100986.72;5084066;27;20484;-89
2021/11/16 08:35:15;;;;;;;7.13;2.83;;;;;;;0.88;59.18;100997.66;5100183;27;20043;-87
2021/11/16 08:37:43;;;;;;;7.32;3.33;;;;;;;0.96;58.96;100989.41;5117871;27;20131;-88
2021/11/16 08:40:15;;;;;;;12.32;3.42;;;;;;;0.97;59.12;100995.59;5083245;27;20050;-90
2021/11/16 08:42:56;;;;;;;33.70;8.73;;;;;;;1.12;59.28;100996.19;5099201;27;20047;-86
2021/11/16 08:45:29;;;;;;;18.35;4.55;;;;;;;1.01;58.55;100961.81;5100217;27;20518;-90
2021/11/16 08:48:05;;;;;;;15.30;5.03;;;;;;;1.21;58.60;100977.97;5083108;27;20035;-87
2021/11/16 08:50:35;;;;;;;8.02;3.47;;;;;;;1.00;58.58;100928.69;5116596;27;20108;-86
2021/11/16 08:53:09;;;;;;;6.95;3.55;;;;;;;1.22;58.54;100953.47;5116778;27;20533;-87
2021/11/16 08:55:38;;;;;;;5.75;2.75;;;;;;;1.13;58.50;100939.44;5048637;23;20054;-90
2021/11/16 08:58:08;;;;;;;11.68;3.85;;;;;;;0.79;58.63;100867.00;5012317;23;20065;-86
2021/11/16 09:00:46;;;;;;;5.68;3.08;;;;;;;1.21;58.33;100913.31;4999702;28;20041;-87
2021/11/16 09:03:18;;;;;;;14.38;3.55;;;;;;;1.14;58.80;100910.63;5032026;28;20514;-87
2021/11/16 09:05:50;;;;;;;7.45;3.22;;;;;;;1.11;58.67;100889.50;4991750;28;20054;-87
2021/11/16 09:08:25;;;;;;;12.35;2.85;;;;;;;1.01;58.54;100887.25;4991759;28;20120;-87
2021/11/16 09:10:58;;;;;;;10.55;3.85;;;;;;;1.11;58.98;100879.56;4975327;28;20054;-86
2021/11/16 09:13:28;;;;;;;6.13;3.50;;;;;;;1.27;58.85;100886.34;4959641;28;20174;-88
2021/11/16 09:15:57;;;;;;;9.57;3.30;;;;;;;1.24;58.29;100884.06;4959303;28;20038;-87
2021/11/16 09:18:36;;;;;;;12.23;3.65;;;;;;;1.30;58.23;100898.56;4991588;28;20046;-88
2021/11/16 09:21:08;;;;;;;15.30;3.78;;;;;;;1.47;57.98;100888.94;4991606;28;20045;-87
2021/11/16 09:23:44;;;;;;;7.55;3.20;;;;;;;1.45;57.54;100893.72;4991407;28;20057;-87
2021/11/16 09:29:01;;;;;;;4.85;2.60;;;;;;;1.59;57.63;100883.69;4991336;28;20149;-87
2021/11/16 09:31:33;;;;;;;5.32;2.65;;;;;;;1.59;57.42;100876.47;4974967;28;20523;-86
2021/11/16 09:34:24;;;;;;;5.90;3.60;;;;;;;1.51;57.54;100875.88;4974987;28;20548;-87
2021/11/16 09:36:52;;;;;;;12.90;4.38;;;;;;;1.47;57.39;100875.47;4991403;28;20054;-86
2021/11/16 09:39:30;;;;;;;20.92;7.53;;;;;;;1.31;57.80;100847.16;4991255;28;20401;-86
2021/11/16 09:42:01;;;;;;;14.43;4.88;;;;;;;1.58;57.69;100879.34;4974995;28;20420;-87
2021/11/16 09:44:31;;;;;;;12.07;4.78;;;;;;;1.56;58.02;100876.06;5031723;28;20049;-87
2021/11/16 09:46:59;;;;;;;17.15;4.40;;;;;;;1.39;57.59;100854.16;5015224;28;20048;-87
2021/11/16 09:49:38;;;;;;;3.95;2.58;;;;;;;1.49;57.34;100868.03;5014914;28;20140;-87
2021/11/16 09:52:07;;;;;;;11.48;4.30;;;;;;;1.53;57.29;100880.00;5032782;28;20545;-87
2021/11/16 09:54:47;;;;;;;3.45;2.38;;;;;;;1.32;57.21;100854.19;4997826;28;20041;-87
2021/11/16 09:57:15;;;;;;;7.43;3.33;;;;;;;1.30;57.44;100823.13;5033734;28;20049;-87
2021/11/16 09:59:43;;;;;;;8.95;3.70;;;;;;;1.39;56.65;100838.84;5034311;28;20045;-87
2021/11/16 10:02:26;;;;;;;12.32;3.47;;;;;;;1.60;57.30;100848.47;5018176;28;20040;-86
2021/11/16 10:04:54;;;;;;;6.70;3.13;;;;;;;1.37;56.81;100813.16;5034510;28;20091;-87
2021/11/16 10:07:22;;;;;;;11.80;2.72;;;;;;;1.54;56.57;100819.66;5018009;28;20083;-87
2021/11/16 10:09:50;;;;;;;8.80;3.05;;;;;;;1.48;56.72;100815.13;5052312;28;20036;-86
2021/11/16 10:12:18;;;;;;;4.57;2.28;;;;;;;1.60;56.46;100826.91;5052315;28;20044;-88
2021/11/16 10:14:48;;;;;;;7.10;3.08;;;;;;;1.62;56.25;100832.91;5034524;28;20056;-87
2021/11/16 10:17:14;;;;;;;8.10;3.50;;;;;;;1.65;56.47;100816.28;5018529;28;20518;-88
2021/11/16 10:19:41;;;;;;;20.10;3.42;;;;;;;1.79;56.67;100816.22;5051138;28;20041;-88
2021/11/16 10:22:11;;;;;;;6.18;2.53;;;;;;;1.80;56.01;100817.84;5051363;28;20091;-87
2021/11/16 10:24:38;;;;;;;4.28;2.40;;;;;;;1.62;55.81;100784.38;5034810;28;20048;-87
2021/11/16 10:27:17;;;;;;;6.30;3.10;;;;;;;1.82;55.76;100803.13;5052390;28;20119;-87
2021/11/16 10:30:01;;;;;;;7.68;3.15;;;;;;;1.88;55.74;100804.09;5033474;28;20468;-88
2021/11/16 10:32:28;;;;;;;6.93;2.95;;;;;;;1.82;55.02;100783.41;5016971;28;20045;-87
2021/11/16 10:35:16;;;;;;;7.38;2.83;;;;;;;1.84;55.04;100808.28;5051816;28;20037;-87
2021/11/16 10:37:47;;;;;;;10.55;3.92;;;;;;;1.82;55.05;100803.13;5050616;28;20037;-87
2021/11/16 10:40:15;;;;;;;9.90;4.05;;;;;;;1.92;55.07;100804.47;5017370;28;20056;-87
2021/11/16 10:42:44;;;;;;;9.63;2.92;;;;;;;2.00;54.66;100810.44;5050370;28;20099;-87
2021/11/16 10:45:15;;;;;;;10.13;4.28;;;;;;;2.11;54.53;100812.41;5017503;28;20051;-87
2021/11/16 10:47:45;;;;;;;4.45;2.55;;;;;;;2.08;54.17;100809.34;5033709;28;20075;-88
2021/11/16 10:50:17;;;;;;;5.53;3.17;;;;;;;2.00;54.30;100782.66;5050376;28;20418;-87
2021/11/16 10:52:44;;;;;;;6.75;3.13;;;;;;;2.10;53.84;100804.56;5052352;28;20052;-88
2021/11/16 10:55:11;;;;;;;15.20;4.03;;;;;;;2.07;54.07;100773.44;5033498;28;20040;-88
2021/11/16 10:57:55;;;;;;;5.05;2.92;;;;;;;2.18;54.11;100788.06;5033440;28;20126;-88
2021/11/16 11:00:48;;;;;;;8.20;3.05;;;;;;;2.23;53.97;100779.34;5017045;28;20047;-87
2021/11/16 11:03:18;;;;;;;6.25;2.90;;;;;;;2.21;53.61;100770.63;5015340;28;20048;-87
2021/11/16 11:05:48;;;;;;;7.40;3.20;;;;;;;2.15;53.78;100755.31;5033608;28;20545;-88
2021/11/16 11:08:36;;;;;;;5.57;2.47;;;;;;;2.30;53.88;100772.81;5033703;28;20049;-88
2021/11/16 11:11:06;;;;;;;11.77;2.30;;;;;;;2.20;53.74;100763.59;5017084;28;20122;-87
2021/11/16 11:13:35;;;;;;;6.80;2.72;;;;;;;2.15;53.93;100749.94;5051418;28;20042;-88
2021/11/16 11:16:02;;;;;;;6.57;2.75;;;;;;;2.06;53.76;100720.56;5051359;28;20048;-87
2021/11/16 11:18:38;;;;;;;7.00;2.85;;;;;;;2.22;53.61;100739.88;5033414;28;20426;-88
2021/11/16 11:21:10;;;;;;;8.00;3.33;;;;;;;2.24;53.10;100740.50;5033482;28;20072;-88
2021/11/16 11:23:46;;;;;;;14.13;3.10;;;;;;;2.22;53.10;100753.38;5033418;28;20060;-89
2021/11/16 11:26:32;;;;;;;6.63;2.97;;;;;;;2.34;53.32;100747.03;5051115;28;20063;-87
2021/11/16 11:29:25;;;;;;;9.18;3.03;;;;;;;2.26;53.11;100746.50;5016884;28;20391;-87
2021/11/16 11:32:16;;;;;;;14.30;3.50;;;;;;;2.24;53.14;100754.00;5033179;28;20041;-88
2021/11/16 11:34:52;;;;;;;5.10;2.40;;;;;;;2.15;53.07;100744.53;5025635;28;20049;-88
2021/11/16 11:37:22;;;;;;;13.80;4.95;;;;;;;2.01;53.02;100712.28;5033507;28;20059;-89
2021/11/16 11:40:29;;;;;;;11.00;4.97;;;;;;;2.29;53.04;100754.16;5016444;28;20494;-88
2021/11/16 11:42:57;;;;;;;37.42;10.52;;;;;;;2.28;53.11;100749.78;5016320;28;20041;-87
2021/11/16 11:45:29;;;;;;;27.63;7.35;;;;;;;2.09;52.78;100733.59;5049637;28;20058;-88
2021/11/16 11:47:59;;;;;;;27.58;7.22;;;;;;;2.27;52.45;100740.88;5033125;28;20045;-87
2021/11/16 11:50:33;;;;;;;28.90;7.60;;;;;;;2.34;52.24;100751.59;5000550;28;20040;-88
2021/11/16 11:53:05;;;;;;;14.10;3.55;;;;;;;2.35;52.75;100764.91;5033248;28;20414;-88
2021/11/16 11:55:39;;;;;;;49.55;11.73;;;;;;;2.19;53.12;100734.97;5016501;28;20037;-89
2021/11/16 11:58:06;;;;;;;12.43;3.92;;;;;;;2.10;52.54;100720.94;5023994;28;20427;-87
2021/11/16 12:00:35;;;;;;;37.05;10.00;;;;;;;2.28;52.78;100734.44;4996804;28;20049;-87